Time;durP1;ratioP1;P1;durP2;ratioP2;P2;SDS_P1;SDS_P2;PMS_P1;PMS_P2;Temp;Humidity;BMP_temperature;BMP_pressure;BME280_temperature;BME280_humidity;BME280_pressure;Samples;Min_cycle;Max_cycle;Signal;HPM_P1;HPM_P2
2023/12/09 00:02:40;;;;;;;;;14.75;12.25;;;;;9.02;57.50;100926.28;146620;599;46016;-64
2023/12/09 00:05:36;;;;;;;;;16.75;14.25;;;;;8.96;58.03;100924.22;146618;573;46011;-65
2023/12/09 00:08:31;;;;;;;;;21.75;19.50;;;;;8.90;58.67;100931.59;146614;563;46016;-64
2023/12/09 00:11:26;;;;;;;;;15.00;14.75;;;;;8.84;58.61;100927.75;146617;569;46020;-64
2023/12/09 00:14:21;;;;;;;;;12.25;11.75;;;;;8.79;58.56;100933.53;146615;650;47013;-64
2023/12/09 00:17:13;;;;;;;;;13.50;13.00;;;;;8.77;58.81;100926.47;146622;608;46010;-65
2023/12/09 00:20:06;;;;;;;;;21.75;18.25;;;;;8.73;59.17;100934.84;146616;554;46016;-64
2023/12/09 00:23:20;;;;;;;;;24.25;19.00;;;;;4.79;58.96;100270.38;146619;565;46010;-65
2023/12/09 00:26:23;;;;;;;;;18.00;16.00;;;;;8.43;60.10;100941.56;146618;573;46016;-65
2023/12/09 00:29:18;;;;;;;;;21.25;15.50;;;;;8.26;60.74;100943.97;146619;597;46021;-66
2023/12/09 00:32:13;;;;;;;;;14.00;12.00;;;;;8.16;60.90;100951.00;146620;566;46014;-66
2023/12/09 00:35:13;;;;;;;;;16.00;10.75;;;;;8.07;61.80;100948.75;146623;599;46010;-66
2023/12/09 00:38:08;;;;;;;;;18.75;18.25;;;;;8.01;62.10;100951.81;146620;648;46012;-65
2023/12/09 00:41:09;;;;;;;;;16.00;15.00;;;;;7.99;62.00;100949.91;146622;609;46010;-65
2023/12/09 00:44:02;;;;;;;;;22.00;20.00;;;;;7.90;61.44;100952.78;146619;566;46014;-65
2023/12/09 00:46:57;;;;;;;;;18.00;18.00;;;;;7.75;61.64;100957.84;146622;576;46010;-66
2023/12/09 00:49:52;;;;;;;;;14.75;13.75;;;;;7.63;61.81;100959.59;146616;579;46016;-67
2023/12/09 00:52:48;;;;;;;;;16.00;13.50;;;;;7.62;62.05;100952.66;146620;597;46020;-65
2023/12/09 00:55:54;;;;;;;;;16.75;15.00;;;;;7.64;62.34;100957.12;146617;753;47016;-65
2023/12/09 00:58:46;;;;;;;;;11.25;11.00;;;;;7.63;62.43;100951.84;146620;570;46011;-66
2023/12/09 01:01:41;;;;;;;;;15.00;13.00;;;;;7.59;62.27;100950.75;146616;596;46016;-65
2023/12/09 01:04:35;;;;;;;;;9.50;7.50;;;;;7.49;62.82;100958.69;146618;576;46020;-65
2023/12/09 01:07:30;;;;;;;;;12.50;11.50;;;;;7.36;62.83;100950.94;146618;569;46916;-65
2023/12/09 01:10:22;;;;;;;;;11.50;11.00;;;;;7.26;63.57;100945.91;146620;581;47010;-65
2023/12/09 01:13:14;;;;;;;;;11.00;11.00;;;;;7.16;63.89;100945.31;146618;578;46916;-63
2023/12/09 01:16:17;;;;;;;;;15.75;13.50;;;;;7.05;63.86;100951.41;146621;599;46020;-64
2023/12/09 01:19:09;;;;;;;;;16.75;14.50;;;;;6.90;64.62;100952.94;146617;576;46016;-64
2023/12/09 01:22:01;;;;;;;;;22.00;20.25;;;;;6.76;65.16;100953.62;146632;600;46010;-63
2023/12/09 01:25:03;;;;;;;;;17.25;15.75;;;;;6.67;64.62;100953.91;146634;563;45016;-65
2023/12/09 01:28:13;;;;;;;;;14.25;13.00;;;;;6.63;65.10;100950.19;146633;584;45020;-65
2023/12/09 01:31:07;;;;;;;;;15.25;10.75;;;;;6.60;65.43;100942.25;146632;605;46916;-64
2023/12/09 01:34:05;;;;;;;;;16.50;12.25;;;;;6.60;65.47;100954.25;146636;603;46010;-64
2023/12/09 01:37:10;;;;;;;;;13.75;13.00;;;;;6.58;65.46;100946.44;146629;640;46916;-65
2023/12/09 01:40:03;;;;;;;;;15.00;12.25;;;;;6.61;65.88;100945.75;146636;608;45020;-68
2023/12/09 01:43:02;;;;;;;;;17.75;14.50;;;;;6.63;65.57;100949.31;146636;616;45013;-66
2023/12/09 01:46:07;;;;;;;;;13.75;11.75;;;;;6.60;66.12;100949.09;146635;594;45010;-68
2023/12/09 01:49:02;;;;;;;;;13.25;10.75;;;;;6.53;65.94;100952.03;146631;649;46015;-68
2023/12/09 01:52:01;;;;;;;;;15.25;13.50;;;;;6.44;66.19;100937.69;146635;592;46010;-67
2023/12/09 01:54:53;;;;;;;;;12.25;10.00;;;;;6.47;66.53;100937.03;146635;589;45016;-67
2023/12/09 01:57:51;;;;;;;;;16.25;10.00;;;;;6.58;66.31;100945.53;146635;644;46011;-66
2023/12/09 02:00:44;;;;;;;;;20.50;17.00;;;;;6.62;65.91;100939.81;146637;570;44030;-67
2023/12/09 02:03:46;;;;;;;;;19.00;18.00;;;;;6.70;65.21;100936.97;146633;571;46010;-67
2023/12/09 02:06:41;;;;;;;;;18.25;16.50;;;;;6.83;65.10;100943.00;146631;570;45916;-68
2023/12/09 02:09:40;;;;;;;;;22.50;18.75;;;;;6.94;64.15;100936.88;146636;584;46010;-68
2023/12/09 02:12:57;;;;;;;;;20.50;20.00;;;;;7.01;63.21;100943.34;146629;599;47014;-67
2023/12/09 02:16:08;;;;;;;;;16.00;15.25;;;;;7.09;63.57;100944.78;146632;605;46014;-67
2023/12/09 02:19:12;;;;;;;;;21.50;18.00;;;;;7.16;62.94;100949.56;146633;626;45030;-67
2023/12/09 02:22:31;;;;;;;;;17.00;15.75;;;;;3.19;62.75;100246.44;146633;608;45020;-67
2023/12/09 02:25:24;;;;;;;;;17.50;15.75;;;;;7.25;62.95;100951.87;146632;565;45018;-67
2023/12/09 02:28:49;;;;;;;;;18.25;17.25;;;;;7.17;62.62;100956.53;146636;565;45021;-67
2023/12/09 02:31:45;;;;;;;;;16.50;14.50;;;;;7.03;63.27;100957.25;146632;696;46913;-67
2023/12/09 02:34:44;;;;;;;;;21.75;17.75;;;;;6.94;63.58;100953.22;146635;569;46011;-68
2023/12/09 02:37:46;;;;;;;;;15.00;14.00;;;;;6.85;63.79;100962.00;146630;564;46014;-66
2023/12/09 02:40:52;;;;;;;;;20.00;15.50;;;;;6.79;64.11;100972.81;146633;598;46021;-66
2023/12/09 02:43:49;;;;;;;;;14.50;13.25;;;;;6.79;63.94;100970.25;146627;726;46014;-64
2023/12/09 02:46:46;;;;;;;;;15.25;12.25;;;;;6.79;64.55;100962.50;146630;590;46010;-65
2023/12/09 02:49:41;;;;;;;;;19.00;16.25;;;;;6.78;64.05;100960.69;146630;580;47025;-64
2023/12/09 02:52:35;;;;;;;;;17.50;15.00;;;;;6.78;64.67;100965.84;146632;624;46020;-64
2023/12/09 02:55:36;;;;;;;;;17.50;15.75;;;;;6.79;63.80;100970.25;146636;565;45017;-64
2023/12/09 02:58:34;;;;;;;;;17.75;16.00;;;;;6.84;63.55;100971.44;146633;620;45020;-63
2023/12/09 03:01:35;;;;;;;;;16.50;14.25;;;;;6.88;62.93;100959.66;146637;602;45012;-65
2023/12/09 03:04:41;;;;;;;;;19.50;16.00;;;;;6.91;63.35;100965.91;146633;616;46010;-65
2023/12/09 03:07:39;;;;;;;;;15.75;14.50;;;;;6.93;62.92;100978.94;146635;810;45914;-65
2023/12/09 03:10:36;;;;;;;;;21.50;18.25;;;;;6.91;63.30;100975.34;146635;599;46011;-65
2023/12/09 03:13:40;;;;;;;;;17.00;14.75;;;;;6.84;63.41;100979.16;146634;586;45027;-65
2023/12/09 03:16:35;;;;;;;;;16.00;15.00;;;;;6.71;63.43;100979.09;146636;586;45020;-65
2023/12/09 03:19:31;;;;;;;;;16.25;14.00;;;;;6.65;63.98;100983.81;146631;575;45914;-64
2023/12/09 03:22:23;;;;;;;;;16.00;14.75;;;;;6.65;64.37;100988.97;146619;599;46020;-63
2023/12/09 03:25:21;;;;;;;;;19.25;16.25;;;;;6.71;64.46;100992.00;146618;579;46013;-63
2023/12/09 03:28:15;;;;;;;;;21.75;15.75;;;;;6.72;64.31;100993.78;146620;592;46020;-64
2023/12/09 03:31:10;;;;;;;;;17.25;15.25;;;;;6.64;63.94;100994.94;146617;573;46016;-64
2023/12/09 03:34:02;;;;;;;;;12.00;12.00;;;;;6.54;64.31;100995.03;146619;608;47010;-64
2023/12/09 03:37:01;;;;;;;;;19.25;15.25;;;;;6.43;64.27;101005.47;146617;718;46012;-65
2023/12/09 03:39:53;;;;;;;;;14.00;14.00;;;;;6.30;65.08;101009.63;146623;585;46021;-68
2023/12/09 03:42:45;;;;;;;;;16.75;13.75;;;;;6.12;65.46;101011.75;146616;565;45599;-68
2023/12/09 03:45:38;;;;;;;;;17.75;14.00;;;;;5.94;66.24;101016.44;146619;569;46020;-69
2023/12/09 03:48:35;;;;;;;;;17.25;15.50;;;;;5.73;66.76;101014.03;146619;615;46914;-68
2023/12/09 03:51:41;;;;;;;;;18.00;14.25;;;;;5.56;67.00;101020.47;146621;576;46020;-68
2023/12/09 03:54:46;;;;;;;;;19.25;16.50;;;;;5.44;67.62;101024.69;146618;610;46013;-68
2023/12/09 03:57:52;;;;;;;;;;;;;;;;;;;;;
2023/12/09 04:00:45;;;;;;;;;18.00;14.00;;;;;5.33;68.64;101034.16;146614;587;46039;-66
2023/12/09 04:03:37;;;;;;;;;16.25;14.50;;;;;5.23;68.78;101018.81;146621;599;46011;-67
2023/12/09 04:06:34;;;;;;;;;20.50;18.25;;;;;5.26;69.00;101030.97;146614;631;46016;-68
2023/12/09 04:09:28;;;;;;;;;19.50;17.00;;;;;5.24;68.83;101032.56;146620;583;46020;-67
2023/12/09 04:12:26;;;;;;;;;18.25;16.50;;;;;5.24;68.95;101033.44;146614;625;46016;-66
2023/12/09 04:15:39;;;;;;;;;21.00;20.00;;;;;1.28;68.25;100337.47;146620;626;47010;-67
2023/12/09 04:18:34;;;;;;;;;19.25;15.75;;;;;5.22;68.72;101029.84;146617;625;46914;-66
2023/12/09 04:21:35;;;;;;;;;22.75;19.75;;;;;5.20;68.48;101038.22;146623;575;45020;-66
2023/12/09 04:24:35;;;;;;;;;24.75;19.50;;;;;5.17;68.60;101038.91;146617;570;46016;-62
2023/12/09 04:27:29;;;;;;;;;23.50;19.00;;;;;5.18;69.15;101047.50;146618;622;46020;-62
2023/12/09 04:30:25;;;;;;;;;22.25;19.00;;;;;5.17;68.74;101053.41;146618;571;46024;-63
2023/12/09 04:33:34;;;;;;;;;;;;;;;;;;;;;
2023/12/09 04:36:30;;;;;;;;;24.50;18.25;;;;;5.12;69.01;101054.75;146616;615;47012;-68
2023/12/09 04:39:38;;;;;;;;;20.75;18.75;;;;;5.09;68.86;101058.84;146619;570;46011;-66
2023/12/09 04:42:46;;;;;;;;;22.00;17.25;;;;;5.06;69.21;101065.44;146617;587;47012;-68
2023/12/09 04:45:41;;;;;;;;;17.75;16.75;;;;;5.02;69.07;101058.28;146616;765;46010;-66
2023/12/09 04:48:37;;;;;;;;;22.00;18.75;;;;;4.99;69.26;101064.06;146611;642;46017;-68
2023/12/09 04:51:30;;;;;;;;;31.25;26.75;;;;;5.00;69.45;101068.41;146617;572;46020;-68
2023/12/09 04:54:29;;;;;;;;;22.25;16.50;;;;;5.02;69.69;101072.00;146617;626;46017;-65
2023/12/09 04:57:38;;;;;;;;;21.50;18.00;;;;;5.00;68.68;101075.22;146618;567;46020;-66
2023/12/09 05:00:33;;;;;;;;;21.75;18.25;;;;;5.00;69.36;101083.81;146617;619;47012;-65
2023/12/09 05:03:31;;;;;;;;;25.50;18.75;;;;;5.09;69.63;101086.22;146621;621;46020;-65
2023/12/09 05:06:33;;;;;;;;;26.75;21.75;;;;;5.15;69.29;101083.25;146616;578;46016;-66
2023/12/09 05:09:29;;;;;;;;;21.00;18.75;;;;;5.16;68.58;101078.22;146615;580;46020;-66
2023/12/09 05:12:26;;;;;;;;;35.00;29.25;;;;;5.28;68.74;101094.59;146620;626;46012;-65
2023/12/09 05:15:21;;;;;;;;;30.50;25.50;;;;;5.29;68.38;101090.34;146621;593;46034;-65
2023/12/09 05:18:25;;;;;;;;;26.75;25.75;;;;;5.34;68.12;101091.63;146618;601;46012;-66
2023/12/09 05:21:17;;;;;;;;;19.50;18.50;;;;;5.41;68.27;101100.69;146619;643;46051;-66
2023/12/09 05:24:11;;;;;;;;;19.00;18.00;;;;;5.46;67.71;101096.81;146614;606;47012;-65
2023/12/09 05:27:04;;;;;;;;;22.00;20.50;;;;;5.53;67.68;101105.13;146618;613;48010;-66
2023/12/09 05:30:00;;;;;;;;;26.75;24.00;;;;;5.63;67.10;101113.53;146617;609;46016;-66
2023/12/09 05:33:02;;;;;;;;;28.25;20.75;;;;;5.70;66.83;101108.09;146617;633;48011;-65
2023/12/09 05:36:00;;;;;;;;;20.00;17.50;;;;;5.77;65.97;101115.50;146618;584;46012;-66
2023/12/09 05:38:58;;;;;;;;;24.00;18.00;;;;;5.75;66.22;101115.37;146621;658;46011;-64
2023/12/09 05:42:00;;;;;;;;;21.00;19.75;;;;;5.74;65.82;101116.16;146617;573;46014;-66
2023/12/09 05:44:52;;;;;;;;;23.00;19.00;;;;;5.68;66.04;101119.94;146623;586;45031;-67
2023/12/09 05:47:52;;;;;;;;;24.50;19.75;;;;;5.61;66.33;101126.31;146617;569;46017;-66
2023/12/09 05:50:49;;;;;;;;;25.50;23.75;;;;;5.56;66.38;101132.75;146621;597;46020;-67
2023/12/09 05:53:49;;;;;;;;;23.50;20.75;;;;;5.50;66.86;101129.72;146615;656;47915;-68
2023/12/09 05:56:54;;;;;;;;;26.25;21.50;;;;;5.46;67.22;101130.25;146616;602;46020;-67
2023/12/09 05:59:56;;;;;;;;;24.00;21.50;;;;;5.39;67.55;101128.87;146619;614;46012;-67
2023/12/09 06:02:51;;;;;;;;;26.25;23.00;;;;;5.32;67.57;101137.75;146620;579;46020;-67
2023/12/09 06:05:54;;;;;;;;;30.50;23.50;;;;;5.24;67.71;101135.41;146616;584;46016;-66
2023/12/09 06:08:50;;;;;;;;;28.50;24.75;;;;;5.17;67.98;101130.53;146623;607;46011;-67
2023/12/09 06:12:02;;;;;;;;;21.75;20.25;;;;;0.86;67.78;100388.44;146616;596;46016;-69
2023/12/09 06:15:00;;;;;;;;;69.75;51.50;;;;;5.10;68.69;101134.28;146621;587;46010;-67
2023/12/09 06:17:56;;;;;;;;;56.00;43.00;;;;;5.13;68.65;101131.06;146620;676;46016;-67
2023/12/09 06:20:59;;;;;;;;;55.00;42.50;;;;;5.24;68.63;101133.72;146621;586;46010;-68
2023/12/09 06:23:52;;;;;;;;;65.50;50.50;;;;;5.37;69.04;101143.28;146618;577;46013;-67
2023/12/09 06:26:58;;;;;;;;;46.50;37.25;;;;;5.50;68.51;101142.56;146617;580;46915;-67
2023/12/09 06:29:53;;;;;;;;;38.50;32.00;;;;;5.61;68.86;101141.75;146632;609;46017;-68
2023/12/09 06:32:48;;;;;;;;;34.50;29.00;;;;;5.86;68.94;101139.38;146622;576;47010;-65
2023/12/09 06:35:40;;;;;;;;;37.75;33.50;;;;;6.16;67.78;101142.50;146618;597;46915;-66
2023/12/09 06:38:34;;;;;;;;;34.75;27.50;;;;;6.46;68.05;101143.91;146623;575;46011;-67
2023/12/09 06:41:26;;;;;;;;;36.75;31.00;;;;;6.78;66.60;101142.78;146617;595;46916;-65
2023/12/09 06:44:20;;;;;;;;;46.25;35.75;;;;;7.21;66.04;101143.31;146623;572;45020;-67
2023/12/09 06:47:18;;;;;;;;;49.25;38.75;;;;;7.72;66.26;101140.00;146614;579;47016;-67
2023/12/09 06:50:13;;;;;;;;;53.50;42.50;;;;;8.46;66.87;101133.00;146620;590;46010;-66
2023/12/09 06:53:12;;;;;;;;;52.50;41.25;;;;;9.36;65.33;101138.81;146617;729;47916;-66
2023/12/09 06:56:03;;;;;;;;;27.75;26.75;;;;;10.38;57.92;101146.78;146616;578;46019;-67
2023/12/09 06:58:55;;;;;;;;;34.75;28.50;;;;;11.21;55.73;101143.69;146614;605;47016;-66
2023/12/09 07:01:49;;;;;;;;;31.50;29.00;;;;;11.77;50.94;101135.50;146620;599;47010;-68
2023/12/09 07:04:41;;;;;;;;;30.50;27.25;;;;;12.11;48.51;101137.25;146614;564;46016;-65
2023/12/09 07:07:32;;;;;;;;;36.50;31.00;;;;;12.24;50.63;101133.56;146619;585;46011;-66
2023/12/09 07:10:24;;;;;;;;;40.75;33.00;;;;;12.46;51.43;101131.28;146615;579;47012;-66
2023/12/09 07:13:15;;;;;;;;;28.75;24.50;;;;;12.82;49.01;101131.28;146621;579;46020;-68
2023/12/09 07:16:13;;;;;;;;;26.75;26.75;;;;;13.07;51.04;101130.75;146616;616;47916;-67
2023/12/09 07:19:06;;;;;;;;;26.50;23.50;;;;;13.55;51.67;101135.59;146614;612;46020;-67
2023/12/09 07:21:59;;;;;;;;;30.75;29.00;;;;;14.10;49.19;101143.28;146633;581;46013;-66
2023/12/09 07:24:50;;;;;;;;;31.50;29.50;;;;;14.39;47.61;101136.72;146631;644;45020;-66
2023/12/09 07:27:42;;;;;;;;;38.25;32.00;;;;;14.49;46.69;101143.22;146634;582;45014;-66
2023/12/09 07:30:33;;;;;;;;;35.25;31.75;;;;;14.51;46.08;101142.47;146636;566;45010;-66
2023/12/09 07:33:25;;;;;;;;;40.50;32.50;;;;;14.40;45.18;101141.09;146633;631;45012;-66
2023/12/09 07:36:17;;;;;;;;;36.50;31.50;;;;;14.13;46.14;101134.69;146636;586;46015;-66
2023/12/09 07:39:09;;;;;;;;;32.00;29.75;;;;;13.99;47.66;101148.03;146633;574;46012;-66
2023/12/09 07:42:03;;;;;;;;;43.50;33.00;;;;;13.85;47.11;101136.09;146636;607;45010;-66
2023/12/09 07:44:55;;;;;;;;;32.50;29.75;;;;;13.66;46.80;101144.78;146633;606;46014;-65
2023/12/09 07:47:47;;;;;;;;;36.50;31.00;;;;;13.45;47.83;101149.03;146634;569;45916;-68
2023/12/09 07:50:44;;;;;;;;;34.25;27.75;;;;;13.24;49.05;101146.25;146633;600;45036;-64
2023/12/09 07:53:35;;;;;;;;;32.00;27.75;;;;;13.24;48.46;101156.69;146637;635;45021;-65
2023/12/09 07:56:26;;;;;;;;;25.00;22.00;;;;;13.10;48.19;101158.66;146633;665;45033;-65
2023/12/09 07:59:18;;;;;;;;;24.00;19.75;;;;;12.83;47.82;101160.78;146632;640;45020;-67
2023/12/09 08:02:13;;;;;;;;;22.25;17.75;;;;;12.53;48.11;101158.47;146633;602;45016;-66
2023/12/09 08:05:12;;;;;;;;;19.50;16.00;;;;;12.31;48.12;101153.91;146633;618;46030;-64
2023/12/09 08:08:03;;;;;;;;;19.50;15.75;;;;;12.11;48.66;101154.56;146633;611;46013;-67
2023/12/09 08:10:55;;;;;;;;;18.00;16.25;;;;;12.02;48.90;101153.31;146636;588;46010;-68
2023/12/09 08:13:47;;;;;;;;;18.00;17.50;;;;;12.07;49.83;101170.81;146635;619;45017;-67
2023/12/09 08:16:42;;;;;;;;;26.50;21.50;;;;;12.13;50.12;101163.34;146637;570;45010;-67
2023/12/09 08:19:33;;;;;;;;;22.25;19.00;;;;;12.24;49.65;101168.28;146631;611;45016;-67
2023/12/09 08:22:27;;;;;;;;;19.00;16.25;;;;;12.23;48.10;101158.69;146622;630;46014;-65
2023/12/09 08:25:19;;;;;;;;;21.75;18.50;;;;;12.25;48.85;101163.97;146619;570;46012;-70
2023/12/09 08:28:13;;;;;;;;;27.00;24.50;;;;;12.26;48.12;101168.34;146621;636;46029;-67
2023/12/09 08:31:22;;;;;;;;;18.50;17.25;;;;;12.26;48.06;101157.97;146612;643;46016;-67
2023/12/09 08:34:17;;;;;;;;;23.00;20.25;;;;;12.25;49.35;101159.69;146622;610;46014;-67
2023/12/09 08:37:10;;;;;;;;;27.75;23.75;;;;;12.36;50.26;101159.31;146612;632;46916;-67
2023/12/09 08:40:15;;;;;;;;;24.50;22.75;;;;;12.46;49.30;101154.69;146619;573;47014;-67
2023/12/09 08:43:06;;;;;;;;;24.50;19.25;;;;;12.56;50.42;101156.03;146617;588;46016;-67
2023/12/09 08:45:58;;;;;;;;;23.25;22.00;;;;;11.26;49.10;100885.25;146621;569;46010;-66
2023/12/09 08:48:53;;;;;;;;;24.50;20.25;;;;;12.92;48.75;101154.31;146616;607;46016;-67
2023/12/09 08:51:52;;;;;;;;;23.75;20.25;;;;;13.02;48.09;101155.69;146616;570;47020;-67
2023/12/09 08:54:44;;;;;;;;;23.00;18.50;;;;;13.05;48.04;101158.44;146617;583;46016;-66
2023/12/09 08:57:36;;;;;;;;;18.25;15.50;;;;;13.01;48.21;101155.59;146622;584;46020;-67
2023/12/09 09:00:30;;;;;;;;;25.00;21.00;;;;;13.00;48.49;101156.44;146616;660;46916;-68
2023/12/09 09:03:21;;;;;;;;;20.25;17.50;;;;;13.04;47.49;101154.03;146620;563;46020;-66
2023/12/09 09:06:12;;;;;;;;;18.75;18.00;;;;;11.56;48.11;100875.53;146614;615;46017;-67
2023/12/09 09:09:04;;;;;;;;;27.25;23.75;;;;;13.19;48.12;101143.47;146622;608;46014;-67
2023/12/09 09:12:01;;;;;;;;;29.25;24.75;;;;;13.33;48.35;101150.25;146616;568;46012;-67
2023/12/09 09:14:56;;;;;;;;;19.00;17.75;;;;;13.40;46.95;101138.41;146619;605;46021;-66
2023/12/09 09:17:48;;;;;;;;;18.50;16.75;;;;;13.27;47.07;101126.53;146616;578;47012;-68
2023/12/09 09:20:42;;;;;;;;;22.50;18.25;;;;;13.14;47.39;101131.94;146623;572;46015;-66
2023/12/09 09:23:41;;;;;;;;;22.00;17.50;;;;;13.08;48.33;101142.03;146618;584;46016;-67
2023/12/09 09:26:35;;;;;;;;;26.00;22.25;;;;;12.97;47.94;101132.84;146615;585;47010;-66
2023/12/09 09:29:26;;;;;;;;;25.75;19.50;;;;;12.84;48.10;101131.38;146614;603;48012;-67
2023/12/09 09:32:21;;;;;;;;;22.00;22.00;;;;;12.76;49.61;101135.31;146620;570;46020;-67
2023/12/09 09:35:13;;;;;;;;;23.00;19.75;;;;;12.55;48.37;101124.72;146615;577;46013;-67
2023/12/09 09:38:09;;;;;;;;;21.50;19.25;;;;;12.41;49.79;101129.25;146621;595;46010;-67
2023/12/09 09:41:02;;;;;;;;;25.25;20.25;;;;;12.27;49.94;101123.34;146617;563;46016;-67
2023/12/09 09:44:02;;;;;;;;;26.75;20.50;;;;;12.13;50.45;101130.44;146618;627;46011;-66
2023/12/09 09:47:00;;;;;;;;;19.75;18.25;;;;;11.99;50.50;101128.81;146615;565;46016;-66
2023/12/09 09:49:55;;;;;;;;;24.00;20.75;;;;;11.90;50.62;101117.94;146618;564;46020;-67
2023/12/09 09:52:46;;;;;;;;;20.75;18.00;;;;;11.84;50.90;101123.72;146614;579;47012;-67
2023/12/09 09:55:42;;;;;;;;;22.50;20.00;;;;;11.83;51.59;101124.50;146621;616;46010;-68
2023/12/09 09:58:35;;;;;;;;;23.25;20.50;;;;;11.80;50.99;101125.22;146618;602;46016;-67
2023/12/09 10:01:29;;;;;;;;;32.00;26.50;;;;;11.71;51.94;101101.41;146620;648;47025;-68
2023/12/09 10:04:22;;;;;;;;;26.25;18.25;;;;;11.81;51.40;101115.75;146618;590;45016;-68
2023/12/09 10:07:21;;;;;;;;;24.75;21.50;;;;;11.82;52.50;101116.66;146619;573;46021;-68
2023/12/09 10:10:24;;;;;;;;;20.25;18.75;;;;;11.83;51.77;101111.50;146616;598;47012;-67
2023/12/09 10:13:21;;;;;;;;;23.00;19.50;;;;;11.82;51.45;101108.84;146621;584;46021;-68
2023/12/09 10:16:16;;;;;;;;;21.75;19.50;;;;;11.79;51.38;101112.19;146614;600;47012;-66
2023/12/09 10:19:10;;;;;;;;;24.75;21.00;;;;;11.77;51.35;101106.00;146621;565;45029;-68
2023/12/09 10:22:01;;;;;;;;;22.75;21.00;;;;;11.73;51.09;101114.44;146631;584;46027;-67
2023/12/09 10:24:56;;;;;;;;;22.25;19.00;;;;;11.67;50.85;101108.94;146635;569;46010;-68
2023/12/09 10:27:48;;;;;;;;;26.25;22.75;;;;;11.63;50.85;101101.78;146632;587;46012;-67
2023/12/09 10:30:40;;;;;;;;;23.50;22.25;;;;;11.64;52.52;101103.56;146635;730;45010;-66
2023/12/09 10:33:36;;;;;;;;;23.75;22.25;;;;;11.67;52.01;101104.63;146630;575;46016;-67
2023/12/09 10:36:31;;;;;;;;;27.75;25.50;;;;;11.71;52.42;101098.81;146637;591;45010;-66
2023/12/09 10:39:23;;;;;;;;;22.25;21.00;;;;;11.66;51.12;101091.56;146633;571;45016;-68
2023/12/09 10:42:16;;;;;;;;;29.25;26.50;;;;;11.62;51.50;101082.72;146636;627;45020;-67
2023/12/09 10:45:14;;;;;;;;;30.25;26.75;;;;;11.60;52.27;101084.34;146633;582;46016;-67
2023/12/09 10:48:05;;;;;;;;;26.75;24.50;;;;;11.66;51.95;101087.25;146635;586;45020;-68
2023/12/09 10:51:00;;;;;;;;;28.00;25.00;;;;;11.67;52.28;101091.63;146634;597;45013;-68
2023/12/09 10:53:55;;;;;;;;;28.75;25.75;;;;;11.68;52.69;101095.13;146631;574;46020;-67
2023/12/09 10:56:50;;;;;;;;;30.25;23.50;;;;;11.70;52.04;101093.50;146636;617;45017;-66
2023/12/09 10:59:43;;;;;;;;;25.50;23.00;;;;;11.71;52.38;101087.50;146635;591;45037;-66
2023/12/09 11:02:39;;;;;;;;;27.25;25.00;;;;;11.60;51.54;101078.25;146633;644;45016;-69
2023/12/09 11:05:31;;;;;;;;;29.25;25.50;;;;;11.64;52.30;101086.28;146631;566;46014;-67
2023/12/09 11:08:29;;;;;;;;;33.50;26.75;;;;;11.66;52.98;101079.47;146630;596;46915;-67
2023/12/09 11:11:24;;;;;;;;;38.00;31.75;;;;;11.76;53.30;101071.34;146632;570;46010;-67
2023/12/09 11:14:19;;;;;;;;;26.75;20.50;;;;;11.77;52.42;101073.12;146630;572;45016;-67
2023/12/09 11:17:56;;;;;;;;;19.00;15.75;;;;;7.87;51.96;100428.53;146634;618;45020;-67
2023/12/09 11:20:49;;;;;;;;;25.00;21.75;;;;;11.72;51.59;101072.00;146622;566;46014;-66
2023/12/09 11:23:48;;;;;;;;;24.75;23.50;;;;;11.72;52.50;101064.19;146621;577;46020;-67
2023/12/09 11:26:43;;;;;;;;;26.50;23.50;;;;;11.76;53.19;101066.12;146616;577;46013;-67
2023/12/09 11:29:34;;;;;;;;;23.00;20.25;;;;;11.82;52.66;101059.50;146617;635;47010;-67
2023/12/09 11:32:31;;;;;;;;;26.25;22.50;;;;;11.83;51.80;101061.25;146620;596;46012;-68
2023/12/09 11:35:28;;;;;;;;;36.50;30.50;;;;;11.89;53.33;101057.28;146618;569;47010;-67
2023/12/09 11:38:29;;;;;;;;;26.00;24.75;;;;;11.98;52.26;101064.69;146618;595;46915;-69
2023/12/09 11:41:22;;;;;;;;;28.75;22.25;;;;;12.01;52.33;101057.94;146618;600;46010;-66
2023/12/09 11:44:17;;;;;;;;;23.75;22.00;;;;;12.09;52.21;101063.53;146616;664;46012;-67
2023/12/09 11:47:11;;;;;;;;;26.25;23.50;;;;;12.16;51.44;101049.12;146617;596;47050;-67
2023/12/09 11:50:08;;;;;;;;;22.50;20.25;;;;;12.24;51.20;101046.09;146615;609;47016;-67
2023/12/09 11:52:59;;;;;;;;;24.25;23.25;;;;;12.48;51.25;101051.59;146618;674;47020;-67
2023/12/09 11:56:00;;;;;;;;;24.00;21.50;;;;;12.81;50.56;101035.81;146615;673;46016;-66
2023/12/09 11:58:53;;;;;;;;;33.00;28.00;;;;;13.25;50.32;101037.00;146620;599;46014;-67
2023/12/09 12:01:48;;;;;;;;;25.75;23.50;;;;;13.69;48.73;101038.09;146617;676;47012;-67
2023/12/09 12:04:39;;;;;;;;;30.00;26.75;;;;;14.07;47.79;101031.91;146619;608;46021;-66
2023/12/09 12:07:31;;;;;;;;;19.50;18.00;;;;;14.31;45.66;101036.38;146615;563;46016;-67
2023/12/09 12:10:22;;;;;;;;;24.00;21.75;;;;;14.57;46.62;101033.94;146609;654;46869;-67
2023/12/09 12:13:17;;;;;;;;;24.25;20.50;;;;;14.78;45.25;101038.28;146617;592;46012;-68
2023/12/09 12:16:15;;;;;;;;;25.00;21.00;;;;;14.70;45.20;101033.59;146619;636;46020;-68
2023/12/09 12:19:07;;;;;;;;;19.75;18.50;;;;;14.50;45.18;101041.50;146612;589;47014;-67
2023/12/09 12:22:20;;;;;;;;;23.75;18.75;;;;;14.35;47.28;101035.66;146630;585;45022;-68
2023/12/09 12:25:16;;;;;;;;;19.75;17.25;;;;;14.22;44.39;101042.09;146631;637;45016;-67
2023/12/09 12:28:13;;;;;;;;;19.25;17.75;;;;;14.02;45.29;101040.37;146631;638;45021;-68
2023/12/09 12:31:10;;;;;;;;;18.00;16.75;;;;;13.71;45.47;101041.66;146633;602;46012;-68
2023/12/09 12:34:02;;;;;;;;;20.00;18.00;;;;;13.48;46.93;101038.03;146635;581;45029;-67
2023/12/09 12:36:56;;;;;;;;;23.25;22.00;;;;;13.37;47.43;101042.78;146631;586;47012;-66
2023/12/09 12:39:54;;;;;;;;;21.75;18.00;;;;;13.32;47.01;101041.66;146634;615;46014;-66
2023/12/09 12:42:50;;;;;;;;;22.50;22.25;;;;;13.32;47.40;101033.84;146629;573;46012;-66
2023/12/09 12:45:55;;;;;;;;;21.75;20.25;;;;;13.31;48.58;101033.81;146635;589;45020;-66
2023/12/09 12:48:48;;;;;;;;;34.75;28.00;;;;;13.29;47.51;101028.50;146635;656;45016;-67
2023/12/09 12:51:49;;;;;;;;;31.75;29.25;;;;;13.40;47.69;101024.69;146635;649;45020;-67
2023/12/09 12:54:44;;;;;;;;;29.25;26.00;;;;;13.73;48.06;101019.16;146632;569;46916;-66
2023/12/09 12:57:51;;;;;;;;;30.00;25.50;;;;;13.86;45.97;101025.78;146635;587;45027;-67
2023/12/09 13:00:57;;;;;;;;;28.25;25.25;;;;;13.89;46.88;101022.41;146633;606;46012;-66
2023/12/09 13:04:00;;;;;;;;;26.25;24.75;;;;;14.13;47.96;101023.44;146633;665;46022;-66
2023/12/09 13:07:07;;;;;;;;;22.00;21.00;;;;;14.40;46.51;101028.91;146635;565;45016;-67
2023/12/09 13:10:17;;;;;;;;;23.00;20.00;;;;;14.48;46.99;101037.91;146634;655;45020;-66
2023/12/09 13:13:15;;;;;;;;;26.00;23.50;;;;;14.60;46.28;101047.13;146632;617;46016;-67
2023/12/09 13:16:15;;;;;;;;;23.25;21.25;;;;;14.85;44.88;101047.25;146637;575;45020;-67
2023/12/09 13:19:22;;;;;;;;;34.00;30.75;;;;;12.06;46.81;100503.69;146633;564;45016;-66
2023/12/09 13:22:18;;;;;;;;;28.00;23.75;;;;;15.46;44.46;101046.97;146632;609;46020;-68
2023/12/09 13:25:19;;;;;;;;;24.25;22.00;;;;;15.72;43.46;101054.88;146634;611;45012;-67
2023/12/09 13:28:20;;;;;;;;;26.75;25.25;;;;;15.96;45.06;101061.81;146634;619;45029;-67
2023/12/09 13:31:24;;;;;;;;;33.25;28.50;;;;;16.25;43.98;101065.41;146633;626;45016;-68
2023/12/09 13:34:26;;;;;;;;;18.75;18.50;;;;;16.48;43.84;101068.78;146633;737;46021;-66